White Sulphur Springs, MT

10:54 PM MST on February 06, 2016 (GMT -0700)
| | Change Station
CLOSE
Current Station
Personal Weather Station
Location: ,
Elevation: -9999 ft
Nearby Weather Stations

Elev -9999 ft 0.00 °N, 0.00 °E | Updated

Snow
Snow
28 °F
Feels Like 17 °F
N
14
Wind Variable Wind from WNW
Gusts 25 mph

Today
High -- | Low -- °F
--% Chance of Precip.
Yesterday
High -- | Low -- °F
Precip. -- in
Pressure 30.38 in
Visibility 10.0 miles
Clouds Overcast 6000 ft
Windchill 17 °F
Dew Point 17 °F
Humidity 61%
Rainfall -9999.00 in
Snow Depth Not available.
7:42 AM 5:36 PM
Waning Crescent, 3% visible
METAR KHLN 070453Z AUTO 30017KT 10SM OVC060 03/M07 A3026 RMK AO2 PK WND 27028/0409 SLP285 T00281067
Pressure 30.38 in
Visibility 10.0 miles
Clouds Overcast 6000 ft
Windchill 17 °F
Dew Point 17 °F
Humidity 61%
Rainfall -9999.00 in
Snow Depth Not available.
7:42 AM 5:36 PM
Waning Crescent, 3% visible
METAR KHLN 070453Z AUTO 30017KT 10SM OVC060 03/M07 A3026 RMK AO2 PK WND 27028/0409 SLP285 T00281067

10-Day Weather Forecast

Almanac

Astronomy

Feb. 06, 2016 Rise Set
Actual Time
Civil Twilight
Nautical Twilight
Astronomical Twilight
Moon
Length of Visible Light
Length of Day
Tomorrow will be .
, % of the Moon is Illuminated

Today's Extremes

State Highs State Lows

Community

WunderPhotos

Upload Photos

1,891,167 photos uploaded!

WunderBlog® & News

Nearby

Air Quality

  Air Quality AQ Index Pollutant
Not available.

Snow Depth

Station Depth Elevation

Earthquake Activity

City Distance Mag. Time & Date
Minimum magnitude displayed is 2.5.

Coastal Water Temperatures

Place Temperature

Stations

Nearby Weather Stations

Station Location Temp. Windchill Dew Point Humidity Wind Precip. Elev Updated Type
                   

Watches & Warnings

There are currently no watches in effect.